Aérodrome :
LOGIN :

S'inscrire | Disclaimer

   EN    FR    IT 

 










Légende :    VFR   VFR Marginal   IFR   IFR Intensif   IFR Très Intensif
Visi : 
Plafond : 
>= 8 km
>= 3000ft
5 à 8 km
1000 à 3000 ft
1500m à 5 km
500 à 1000 ft
800 à 1500m
200 à 500 ft
< 800m
< 200 ft
Symboles :   Orages  Brouillard  Fortes neiges  Fortes précipitations  Vent > 20 kt
SIGMETs :   Divers  Orages  Givrage  Turbulence  Onde Orograph.  Cendres Volcan.







- Altitude de l'aérodrome : 782 ft
- Code IATA : BGY


LIME - Orio al Serio International - Bergamo

DERNIER METAR :
  • 221150Z 22004KT 190V260 5000 BR SCT015 BKN050 05/02 Q1008 NOSIG

METARs EXPIRÉS :
  • 221120Z 23004KT 210V270 5000 BR SCT010 BKN050 04/02 Q1008 NOSIG
  • 221050Z 20005KT 170V230 5000 BR SCT010 BKN050 04/01 Q1008 NOSIG
  • 221020Z VRB02KT 5000 BR SCT010 BKN050 04/01 Q1007 NOSIG
  • 220950Z 22005KT 5000 BR SCT010 BKN050 04/01 Q1007 NOSIG
  • 220920Z 21004KT 160V270 6000 SCT010 BKN050 03/01 Q1007 NOSIG

TAF TAF LIME
Valide du 22 à 12h jusqu'au 23 à 12h UTC


221100Z 2212/2312 VRB05KT 6000 SCT010 BKN050
TEMPO 2212/2218 4000 DZ BKN010 BKN035
PROB40
TEMPO 2212/2218 2000 RASN BKN008 OVC025
BECMG 2302/2304 3000 DZ BKN010 BKN030
TEMPO 2304/2312 2000 RASN BKN008 OVC020
Pas de NOTAMs connus pour ce terrain.



MET'MAP, la Météo Aéronautique d'un coup d'oeil ! - Copyright ORBIFLY Décembre 2007 - Disclaimer

ORBIFLY MET'MAP TEAM :

Programmation & Développement : Alexandra Zaïnal
Conception & Développement : Baudouin d'Aumeries
Co-Programmation & Développement : Marc-Olivier Méhu
Soutien technique & logistique : Manuel Goepfert

Contact : metmap@orbifly.com




SOURCES & CREDITS :

   NOAA